createdAt,value
2023-04-17T00:01:13.149Z,29.23
2023-04-17T00:04:15.157Z,27.13
2023-04-17T00:07:17.010Z,28.57
2023-04-17T00:10:18.806Z,29.07
2023-04-17T00:13:20.569Z,28.00
2023-04-17T00:16:22.313Z,28.87
2023-04-17T00:19:24.006Z,29.57
2023-04-17T00:22:25.714Z,34.73
2023-04-17T00:25:27.392Z,24.57
2023-04-17T00:28:29.074Z,28.03
2023-04-17T00:31:30.977Z,27.67
2023-04-17T00:37:56.910Z,35.77
2023-04-17T00:40:58.676Z,32.23
2023-04-17T00:44:00.340Z,37.50
2023-04-17T00:47:02.936Z,33.93
2023-04-17T00:50:05.520Z,28.00
2023-04-17T00:53:07.352Z,29.57
2023-04-17T00:56:09.868Z,31.50
2023-04-17T00:59:14.313Z,32.57
2023-04-17T01:02:16.877Z,30.93
2023-04-17T01:05:18.828Z,35.07
2023-04-17T01:08:20.710Z,28.30
2023-04-17T01:11:22.634Z,28.90
2023-04-17T01:14:24.416Z,31.17
2023-04-17T01:17:26.585Z,36.87
2023-04-17T01:20:30.050Z,34.37
2023-04-17T01:23:46.975Z,33.70
2023-04-17T01:26:48.761Z,32.30
2023-04-17T01:29:50.863Z,37.17
2023-04-17T01:32:56.647Z,33.93
2023-04-17T01:35:58.354Z,32.23
2023-04-17T01:39:00.106Z,31.97
2023-04-17T01:42:01.946Z,29.40
2023-04-17T01:45:04.903Z,36.77
2023-04-17T01:48:06.636Z,33.27
2023-04-17T01:51:08.431Z,30.40
2023-04-17T01:54:10.210Z,33.87
2023-04-17T01:57:11.894Z,30.87
2023-04-17T02:00:14.692Z,30.57
2023-04-17T02:07:04.126Z,31.90
2023-04-17T02:13:11.994Z,33.03
2023-04-17T02:16:16.422Z,35.20
2023-04-17T02:19:18.188Z,41.83
2023-04-17T02:22:19.916Z,35.43
2023-04-17T02:25:21.668Z,30.93
2023-04-17T02:28:23.475Z,30.97
2023-04-17T02:31:25.658Z,28.20
2023-04-17T02:34:34.176Z,29.17
2023-04-17T02:37:38.214Z,27.60
2023-04-17T02:40:51.262Z,31.23
2023-04-17T02:43:57.389Z,33.63
2023-04-17T02:46:59.942Z,32.07
2023-04-17T02:50:06.654Z,35.10
2023-04-17T02:53:19.140Z,34.10
2023-04-17T02:56:25.109Z,30.83
2023-04-17T02:59:27.555Z,32.90
2023-04-17T03:02:30.810Z,33.33
2023-04-17T03:08:38.325Z,32.83
2023-04-17T03:11:40.241Z,32.53
2023-04-17T03:14:43.008Z,34.47
2023-04-17T03:17:44.974Z,34.00
2023-04-17T03:20:46.782Z,37.20
2023-04-17T03:23:48.675Z,37.00
2023-04-17T03:26:51.370Z,34.70
2023-04-17T03:29:56.373Z,36.83
2023-04-17T03:33:00.431Z,34.53
2023-04-17T03:36:05.977Z,35.73
2023-04-17T03:39:08.675Z,39.73
2023-04-17T03:42:14.382Z,46.20
2023-04-17T03:45:17.188Z,35.17
2023-04-17T03:48:19.633Z,39.97
2023-04-17T03:51:26.275Z,43.43
2023-04-17T03:54:30.441Z,41.40
2023-04-17T03:57:37.637Z,41.50
2023-04-17T04:04:08.069Z,37.07
2023-04-17T04:07:10.363Z,40.93
2023-04-17T04:10:12.895Z,39.17
2023-04-17T04:13:15.610Z,39.13
2023-04-17T04:16:22.267Z,37.57
2023-04-17T04:19:26.569Z,36.57
2023-04-17T04:22:43.287Z,39.73
2023-04-17T04:29:14.556Z,42.30
2023-04-17T04:32:37.604Z,35.83
2023-04-17T04:35:41.815Z,39.13
2023-04-17T04:38:43.705Z,40.17
2023-04-17T04:41:55.929Z,39.23
2023-04-17T04:45:04.432Z,40.00
2023-04-17T04:48:07.781Z,38.03
2023-04-17T04:51:09.917Z,42.63
2023-04-17T04:54:13.699Z,39.70
2023-04-17T05:01:05.632Z,36.53
2023-04-17T05:11:54.398Z,38.70
2023-04-17T05:14:57.085Z,38.17
2023-04-17T05:28:11.553Z,41.03
2023-04-17T05:34:32.046Z,43.53
2023-04-17T05:37:35.161Z,42.90
2023-04-17T05:40:42.264Z,43.43
2023-04-17T05:43:48.406Z,46.67
2023-04-17T05:53:48.857Z,45.93
2023-04-17T05:56:52.201Z,47.13
2023-04-17T05:59:57.871Z,39.77
2023-04-17T06:03:07.478Z,43.23
2023-04-17T06:06:13.757Z,39.83
2023-04-17T06:09:16.104Z,48.00
2023-04-17T06:12:19.740Z,38.77
2023-04-17T06:15:30.754Z,39.53
2023-04-17T06:18:36.184Z,39.13
2023-04-17T06:21:41.714Z,43.83
2023-04-17T06:32:07.613Z,42.97
2023-04-17T06:38:52.313Z,40.63
2023-04-17T06:42:08.336Z,43.73
2023-04-17T06:45:14.615Z,39.93
2023-04-17T06:48:20.695Z,43.50
2023-04-17T06:51:27.817Z,39.60
2023-04-17T06:54:30.183Z,41.27
2023-04-17T06:57:35.597Z,44.40
2023-04-17T07:00:49.474Z,41.23
2023-04-17T07:07:09.965Z,38.43
2023-04-17T07:10:11.934Z,36.03
2023-04-17T07:13:21.043Z,40.10
2023-04-17T07:16:27.147Z,37.93
2023-04-17T07:19:34.124Z,40.27
2023-04-17T07:22:36.663Z,36.13
2023-04-17T07:25:44.911Z,36.63
2023-04-17T07:28:46.921Z,33.87
2023-04-17T07:32:17.396Z,35.57
2023-04-17T07:35:24.788Z,34.60
2023-04-17T07:38:35.831Z,32.03
2023-04-17T07:48:50.198Z,36.67
2023-04-17T08:05:33.061Z,32.07
2023-04-17T08:14:48.070Z,34.23
2023-04-17T08:24:42.595Z,30.23
2023-04-17T08:31:18.211Z,27.93
2023-04-17T08:34:45.315Z,29.07
2023-04-17T08:37:47.133Z,27.27
2023-04-17T08:40:52.812Z,27.13
2023-04-17T08:47:44.945Z,26.53
2023-04-17T08:50:51.729Z,25.87
2023-04-17T08:54:22.070Z,25.83
2023-04-17T08:57:23.898Z,24.23
2023-04-17T09:03:57.245Z,20.83
2023-04-17T09:31:46.115Z,22.70
2023-04-17T09:34:48.549Z,20.97
2023-04-17T09:38:06.012Z,21.13
2023-04-17T09:45:24.522Z,22.40
2023-04-17T10:09:22.674Z,19.00
2023-04-17T10:12:34.744Z,21.40
2023-04-17T10:15:37.507Z,18.50
2023-04-17T10:51:37.004Z,14.47
2023-04-17T10:55:09.992Z,11.47
2023-04-17T11:03:25.994Z,10.20
2023-04-17T11:10:09.708Z,11.13
2023-04-17T11:13:11.437Z,12.63
2023-04-17T11:16:14.892Z,11.02
2023-04-17T11:19:23.626Z,13.95
2023-04-17T11:51:28.922Z,9.13
2023-04-17T12:01:32.663Z,10.73
2023-04-17T12:04:36.539Z,11.27
2023-04-17T12:33:06.737Z,11.80
2023-04-17T12:54:26.778Z,10.88
2023-04-17T12:57:31.608Z,13.98
2023-04-17T13:00:34.321Z,13.13
2023-04-17T13:03:36.580Z,9.05
2023-04-17T13:06:40.031Z,11.57
2023-04-17T13:09:42.206Z,11.00
2023-04-17T13:12:44.131Z,13.00
2023-04-17T13:15:47.666Z,11.65
2023-04-17T13:18:49.447Z,7.85
2023-04-17T13:21:54.168Z,11.00
2023-04-17T13:24:56.010Z,10.18
2023-04-17T13:31:16.129Z,10.80
2023-04-17T13:34:17.976Z,7.40
2023-04-17T13:37:20.514Z,11.20
2023-04-17T13:40:22.280Z,10.43
2023-04-17T13:43:24.676Z,9.90
2023-04-17T13:49:46.166Z,9.07
2023-04-17T13:56:23.319Z,9.60
2023-04-17T14:13:56.559Z,10.35
2023-04-17T14:20:29.272Z,11.85
2023-04-17T14:23:32.632Z,8.10
2023-04-17T14:40:23.317Z,10.38
2023-04-17T14:43:25.175Z,7.25
2023-04-17T14:46:26.964Z,6.75
2023-04-17T14:49:31.556Z,9.20
2023-04-17T14:52:33.536Z,7.10
2023-04-17T14:55:36.904Z,10.05
2023-04-17T14:58:49.461Z,6.97
2023-04-17T15:01:56.666Z,8.27
2023-04-17T15:05:05.902Z,9.80
2023-04-17T15:11:55.020Z,8.00
2023-04-17T15:15:04.435Z,10.55
2023-04-17T15:18:10.682Z,11.75
2023-04-17T15:21:13.488Z,9.45
2023-04-17T15:24:25.717Z,7.78
2023-04-17T15:27:34.640Z,9.15
2023-04-17T15:31:14.689Z,12.80
2023-04-17T15:37:54.612Z,9.60
2023-04-17T15:41:13.076Z,7.30
2023-04-17T15:44:14.836Z,7.95
2023-04-17T15:47:16.731Z,8.45
2023-04-17T15:57:38.991Z,11.38
2023-04-17T16:01:11.812Z,11.65
2023-04-17T16:04:47.761Z,13.43
2023-04-17T16:15:12.093Z,9.88
2023-04-17T16:21:56.546Z,11.20
2023-04-17T16:25:08.184Z,9.20
2023-04-17T16:28:36.741Z,11.82
2023-04-17T16:31:47.020Z,10.32
2023-04-17T16:38:33.966Z,10.75
2023-04-17T16:48:47.875Z,13.07
2023-04-17T16:52:05.581Z,13.85
2023-04-17T16:55:17.851Z,11.02
2023-04-17T16:58:24.633Z,10.70
2023-04-17T17:01:43.974Z,10.30
2023-04-17T17:15:32.284Z,9.70
2023-04-17T17:25:26.891Z,8.80
2023-04-17T17:28:32.864Z,9.47
2023-04-17T17:31:41.787Z,10.67
2023-04-17T17:34:52.588Z,14.32
2023-04-17T17:37:57.704Z,13.13
2023-04-17T17:41:01.624Z,18.25
2023-04-17T17:47:28.519Z,10.63
2023-04-17T17:50:33.857Z,13.33
2023-04-17T17:53:45.010Z,22.30
2023-04-17T17:56:55.570Z,11.50
2023-04-17T18:10:13.385Z,13.47
2023-04-17T18:16:48.674Z,12.33
2023-04-17T18:23:30.103Z,15.13
2023-04-17T18:26:32.079Z,12.50
2023-04-17T18:29:33.963Z,12.03
2023-04-17T18:36:06.767Z,17.00
2023-04-17T18:42:30.906Z,15.97
2023-04-17T18:45:32.795Z,14.87
2023-04-17T18:48:34.775Z,14.27
2023-04-17T18:51:37.697Z,12.57
2023-04-17T18:54:39.585Z,16.03
2023-04-17T18:57:41.418Z,12.63
2023-04-17T19:00:43.314Z,14.40
2023-04-17T19:03:46.179Z,12.57
2023-04-17T19:06:48.030Z,16.53
2023-04-17T19:09:49.870Z,13.07
2023-04-17T19:12:51.661Z,12.77
2023-04-17T19:15:53.726Z,15.23
2023-04-17T19:18:56.689Z,13.67
2023-04-17T19:21:58.464Z,13.50
2023-04-17T19:25:00.334Z,17.03
2023-04-17T19:28:02.131Z,14.70
2023-04-17T19:31:04.055Z,12.83
2023-04-17T19:34:07.003Z,12.13
2023-04-17T19:37:09.035Z,16.47
2023-04-17T19:40:21.320Z,11.30
2023-04-17T19:43:25.923Z,15.20
2023-04-17T19:46:29.592Z,15.53
2023-04-17T19:53:11.115Z,14.27
2023-04-17T19:56:13.038Z,19.03
2023-04-17T19:59:15.060Z,14.57
2023-04-17T20:02:21.293Z,13.53
2023-04-17T20:05:23.291Z,14.07
2023-04-17T20:08:25.597Z,17.17
2023-04-17T20:11:27.366Z,13.87
2023-04-17T20:14:29.234Z,15.27
2023-04-17T20:21:01.751Z,15.07
2023-04-17T20:24:03.876Z,17.17
2023-04-17T20:27:06.112Z,13.60
2023-04-17T20:36:54.713Z,13.70
2023-04-17T20:39:56.481Z,11.00
2023-04-17T20:42:58.300Z,11.60
2023-04-17T20:46:00.165Z,14.63
2023-04-17T20:49:02.002Z,16.10
2023-04-17T20:52:03.972Z,16.20
2023-04-17T20:55:07.129Z,12.27
2023-04-17T20:58:08.956Z,10.60
2023-04-17T21:01:10.722Z,10.73
2023-04-17T21:04:13.066Z,18.07
2023-04-17T21:07:15.416Z,13.13
2023-04-17T21:10:17.321Z,14.00
2023-04-17T21:13:19.122Z,15.40
2023-04-17T21:16:21.146Z,11.67
2023-04-17T21:19:24.239Z,10.87
2023-04-17T21:22:26.038Z,13.87
2023-04-17T21:29:12.808Z,19.17
2023-04-17T21:32:15.124Z,9.07
2023-04-17T21:35:22.863Z,9.40
2023-04-17T21:38:25.149Z,8.17
2023-04-17T21:41:27.641Z,9.37
2023-04-17T21:44:37.718Z,11.77
2023-04-17T21:47:39.737Z,12.40
2023-04-17T21:50:43.525Z,10.83
2023-04-17T21:53:46.623Z,9.60
2023-04-17T21:56:49.238Z,9.20
2023-04-17T21:59:54.623Z,8.53
2023-04-17T22:02:56.727Z,12.23
2023-04-17T22:05:58.683Z,8.23
2023-04-17T22:09:01.336Z,11.30
2023-04-17T22:12:20.722Z,10.13
2023-04-17T22:15:22.567Z,13.30
2023-04-17T22:18:25.582Z,10.50
2023-04-17T22:21:27.271Z,10.03
2023-04-17T22:24:28.965Z,12.03
2023-04-17T22:27:30.681Z,9.73
2023-04-17T22:30:32.402Z,10.37
2023-04-17T22:33:34.202Z,9.60
2023-04-17T22:36:36.516Z,12.67
2023-04-17T22:39:38.213Z,8.87
2023-04-17T22:42:39.909Z,10.13
2023-04-17T22:45:41.641Z,13.77
2023-04-17T22:48:47.057Z,9.80
2023-04-17T22:51:48.838Z,8.63
2023-04-17T22:54:50.554Z,8.23
2023-04-17T22:57:52.305Z,8.07
2023-04-17T23:00:53.991Z,13.57
2023-04-17T23:03:55.837Z,10.73
2023-04-17T23:06:57.520Z,10.33
2023-04-17T23:09:59.299Z,11.77
2023-04-17T23:13:00.974Z,9.90
2023-04-17T23:16:02.678Z,10.50
2023-04-17T23:19:04.716Z,10.17
2023-04-17T23:22:07.301Z,8.53
2023-04-17T23:25:09.642Z,9.30
2023-04-17T23:28:11.394Z,9.97
2023-04-17T23:31:13.703Z,10.53
2023-04-17T23:34:15.823Z,8.77
2023-04-17T23:37:17.752Z,10.23
2023-04-17T23:40:19.504Z,10.07
2023-04-17T23:43:21.295Z,9.87
2023-04-17T23:46:23.293Z,7.70
2023-04-17T23:49:25.146Z,9.97
2023-04-17T23:52:27.880Z,8.10
2023-04-17T23:55:29.667Z,8.53
2023-04-17T23:58:31.635Z,7.90
